Time;durP1;ratioP1;P1;durP2;ratioP2;P2;SDS_P1;SDS_P2;PMS_P1;PMS_P2;Temp;Humidity;BMP_temperature;BMP_pressure;BME280_temperature;BME280_humidity;BME280_pressure;Samples;Min_cycle;Max_cycle;Signal;HPM_P1;HPM_P2
2023/03/02 00:01:15;;;;;;;33.60;18.57;;;;;;;;;;5076489;28;20035;-84
2023/03/02 00:04:01;;;;;;;32.30;18.53;;;;;;;;;;5092310;28;20050;-84
2023/03/02 00:06:47;;;;;;;34.93;19.40;;;;;;;;;;5081042;28;20035;-85
2023/03/02 00:09:32;;;;;;;35.00;20.53;;;;;;;;;;5088462;28;20043;-84
2023/03/02 00:12:17;;;;;;;37.17;19.37;;;;;;;;;;5095630;28;20089;-84
2023/03/02 00:15:01;;;;;;;36.57;19.73;;;;;;;;;;5096341;28;20094;-85
2023/03/02 00:17:46;;;;;;;37.67;20.17;;;;;;;;;;5096028;28;20031;-84
2023/03/02 00:20:30;;;;;;;38.83;21.40;;;;;;;;;;5080627;28;20453;-84
2023/03/02 00:23:15;;;;;;;40.07;20.77;;;;;;;;;;5080076;28;20039;-84
2023/03/02 00:26:00;;;;;;;40.23;21.80;;;;;;;;;;5080712;28;20120;-85
2023/03/02 00:28:45;;;;;;;40.27;20.43;;;;;;;;;;5096072;28;20476;-84
2023/03/02 00:31:29;;;;;;;40.57;20.87;;;;;;;;;;5095416;28;20039;-84
2023/03/02 00:34:14;;;;;;;35.73;19.33;;;;;;;;;;5110832;28;20156;-85
2023/03/02 00:36:58;;;;;;;39.33;21.13;;;;;;;;;;5116194;28;20035;-84
2023/03/02 00:39:43;;;;;;;40.23;20.10;;;;;;;;;;5116252;28;20437;-84
2023/03/02 00:42:27;;;;;;;40.57;21.37;;;;;;;;;;5115608;28;20042;-84
2023/03/02 00:45:12;;;;;;;34.67;20.03;;;;;;;;;;5115511;28;20072;-86
2023/03/02 00:47:56;;;;;;;36.70;18.93;;;;;;;;;;5100655;28;20081;-84
2023/03/02 00:50:41;;;;;;;36.23;19.57;;;;;;;;;;5087860;28;20415;-84
2023/03/02 00:53:25;;;;;;;36.13;19.93;;;;;;;;;;5115517;28;20138;-85
2023/03/02 00:56:10;;;;;;;40.43;21.23;;;;;;;;;;5076883;28;20059;-84
2023/03/02 00:58:55;;;;;;;41.13;20.87;;;;;;;;;;5100212;28;20039;-84
2023/03/02 01:01:40;;;;;;;38.03;21.37;;;;;;;;;;5116062;28;20094;-84
2023/03/02 01:04:31;;;;;;;41.27;21.23;;;2.60;99.90;;;;;;5059437;28;20046;-84
2023/03/02 01:07:19;;;;;;;45.57;22.17;;;2.50;99.90;;;;;;5106200;28;20097;-85
2023/03/02 01:10:04;;;;;;;42.10;23.23;;;;;;;;;;5089453;28;20039;-85
2023/03/02 01:12:49;;;;;;;41.20;20.87;;;;;;;;;;5099019;28;20031;-85
2023/03/02 01:15:34;;;;;;;42.13;22.67;;;;;;;;;;5099157;28;20149;-84
2023/03/02 01:18:18;;;;;;;40.67;20.20;;;;;;;;;;5090850;28;20042;-85
2023/03/02 01:21:11;;;;;;;36.77;19.70;;;;;;;;;;5115305;28;20080;-84
2023/03/02 01:23:56;;;;;;;39.67;18.40;;;;;;;;;;5115423;28;20391;-84
2023/03/02 01:26:40;;;;;;;40.77;19.33;;;;;;;;;;5074234;28;20399;-84
2023/03/02 01:29:25;;;;;;;35.83;19.57;;;;;;;;;;5099132;28;20116;-84
2023/03/02 01:32:10;;;;;;;34.50;15.87;;;;;;;;;;5115195;28;20034;-84
2023/03/02 01:34:55;;;;;;;36.87;18.40;;;;;;;;;;5085100;28;20058;-84
2023/03/02 01:37:39;;;;;;;37.77;18.33;;;;;;;;;;5094351;28;20093;-84
2023/03/02 01:40:23;;;;;;;39.17;19.57;;;;;;;;;;5097312;28;20046;-84
2023/03/02 01:43:12;;;;;;;35.63;17.97;;;;;;;;;;5115084;28;20038;-84
2023/03/02 01:46:11;;;;;;;34.50;16.93;;;;;;;;;;5107908;28;20035;-84
2023/03/02 01:48:58;;;;;;;40.70;19.20;;;;;;;;;;5114789;28;20050;-84
2023/03/02 01:51:45;;;;;;;36.63;19.00;;;;;;;;;;5114390;28;20056;-84
2023/03/02 01:54:30;;;;;;;37.67;18.10;;;;;;;;;;5058558;28;20070;-84
2023/03/02 01:57:20;;;;;;;42.40;19.53;;;2.20;99.90;;;;;;5079358;28;20042;-84
2023/03/02 02:00:09;;;;;;;36.97;18.83;;;;;;;;;;5114808;28;20042;-84
2023/03/02 02:02:55;;;;;;;36.50;19.13;;;2.30;99.90;;;;;;5085434;28;20502;-85
2023/03/02 02:05:45;;;;;;;40.40;19.13;;;2.30;99.90;;;;;;5083914;28;20089;-84
2023/03/02 02:08:30;;;;;;;37.73;18.93;;;;;;;;;;5114067;28;20395;-84
2023/03/02 02:11:15;;;;;;;38.23;19.07;;;;;;;;;;5058773;28;20545;-84
2023/03/02 02:14:01;;;;;;;37.40;20.07;;;2.30;99.90;;;;;;5106094;28;20070;-84
2023/03/02 02:16:48;;;;;;;34.43;18.10;;;;;;;;;;5113938;28;20038;-84
2023/03/02 02:19:33;;;;;;;42.40;20.13;;;;;;;;;;5113568;28;20037;-84
2023/03/02 02:22:24;;;;;;;40.77;20.90;;;;;;;;;;5114263;28;20046;-84
2023/03/02 02:25:35;;;;;;;44.50;19.77;;;2.20;99.90;;;;;;5105337;28;20054;-84
2023/03/02 02:28:25;;;;;;;39.67;19.30;;;2.20;99.90;;;;;;5100523;28;20091;-85
2023/03/02 02:31:33;;;;;;;39.77;18.87;;;2.20;99.90;;;;;;5113812;28;20039;-84
2023/03/02 02:34:22;;;;;;;38.87;19.77;;;;;;;;;;5082427;28;20537;-85
2023/03/02 02:44:33;;;;;;;42.27;20.43;;;;;;;;;;5303703;22;20512;-83
2023/03/02 02:47:19;;;;;;;41.83;20.07;;;;;;;;;;5072898;28;20083;-84
2023/03/02 02:50:04;;;;;;;47.23;22.70;;;;;;;;;;5057935;28;20039;-84
2023/03/02 02:52:56;;;;;;;46.93;21.47;;;2.10;99.90;;;;;;5057934;28;20087;-85
2023/03/02 02:55:41;;;;;;;41.63;20.13;;;;;;;;;;5058312;28;20052;-85
2023/03/02 02:58:35;;;;;;;51.73;22.73;;;;;;;;;;5073499;28;20062;-84
2023/03/02 03:01:24;;;;;;;45.17;21.47;;;2.00;99.90;;;;;;5058499;28;20397;-85
2023/03/02 03:04:12;;;;;;;41.83;18.97;;;;;;;;;;5058398;28;20036;-84
2023/03/02 03:06:59;;;;;;;46.90;19.97;;;1.90;99.90;;;;;;5057692;28;20098;-84
2023/03/02 03:09:45;;;;;;;47.37;20.90;;;;;;;;;;5057578;28;20070;-86
2023/03/02 03:12:32;;;;;;;50.50;21.10;;;1.90;99.90;;;;;;5058103;28;20055;-84
2023/03/02 03:15:16;;;;;;;45.03;21.10;;;;;;;;;;5073192;28;20098;-84
2023/03/02 03:18:01;;;;;;;66.60;22.73;;;;;;;;;;5057667;28;20395;-84
2023/03/02 03:20:45;;;;;;;47.30;21.40;;;;;;;;;;5072659;28;20495;-86
2023/03/02 03:23:30;;;;;;;82.03;22.50;;;;;;;;;;5057766;28;20044;-85
2023/03/02 03:26:15;;;;;;;62.47;24.37;;;;;;;;;;5057739;28;20487;-84
2023/03/02 03:29:00;;;;;;;72.97;24.27;;;;;;;;;;5057704;28;20047;-84
2023/03/02 03:31:45;;;;;;;63.03;24.00;;;;;;;;;;5057410;28;20048;-84
2023/03/02 03:34:30;;;;;;;87.83;25.50;;;;;;;;;;5073039;28;20079;-84
2023/03/02 03:37:16;;;;;;;62.90;22.93;;;;;;;;;;5057275;28;20090;-84
2023/03/02 03:40:01;;;;;;;64.10;24.77;;;;;;;;;;5071733;28;20043;-84
2023/03/02 03:42:46;;;;;;;82.00;24.53;;;;;;;;;;5057589;28;20396;-84
2023/03/02 03:45:30;;;;;;;77.53;24.00;;;;;;;;;;5073094;28;20051;-84
2023/03/02 03:48:15;;;;;;;85.63;26.33;;;;;;;;;;5072811;28;20075;-84
2023/03/02 03:50:59;;;;;;;89.07;24.63;;;;;;;;;;5057131;28;20062;-84
2023/03/02 03:53:44;;;;;;;131.33;28.93;;;;;;;;;;5057687;28;20098;-84
2023/03/02 03:56:32;;;;;;;96.00;29.03;;;;;;;;;;5057658;28;20062;-84
2023/03/02 03:59:21;;;;;;;108.77;28.37;;;;;;;;;;5072699;28;20113;-84
2023/03/02 04:02:06;;;;;;;84.93;25.10;;;;;;;;;;5072419;28;20036;-84
2023/03/02 04:04:51;;;;;;;78.60;25.03;;;;;;;;;;5071826;28;20035;-85
2023/03/02 04:07:36;;;;;;;115.93;28.20;;;;;;;;;;5057238;28;20099;-84
2023/03/02 04:10:21;;;;;;;80.67;25.77;;;;;;;;;;5072660;28;20082;-84
2023/03/02 04:13:06;;;;;;;95.00;24.40;;;;;;;;;;5072295;28;20396;-84
2023/03/02 04:15:51;;;;;;;97.07;23.13;;;;;;;;;;5057370;28;20132;-84
2023/03/02 04:18:35;;;;;;;86.90;24.17;;;;;;;;;;5072493;28;20402;-84
2023/03/02 04:21:20;;;;;;;92.93;26.83;;;;;;;;;;5072541;28;20118;-84
2023/03/02 04:24:05;;;;;;;97.90;28.70;;;;;;;;;;5056868;28;20032;-84
2023/03/02 04:26:50;;;;;;;171.20;25.73;;;;;;;;;;5057074;28;20093;-84
2023/03/02 04:29:35;;;;;;;100.60;24.53;;;;;;;;;;5072423;28;20537;-84
2023/03/02 04:32:20;;;;;;;74.13;24.63;;;;;;;;;;5057001;28;20038;-85
2023/03/02 04:35:05;;;;;;;70.97;23.83;;;;;;;;;;5056718;28;20580;-84
2023/03/02 04:37:50;;;;;;;163.03;31.93;;;;;;;;;;5056759;28;20055;-84
2023/03/02 04:40:34;;;;;;;87.43;26.63;;;;;;;;;;5056942;28;20102;-84
2023/03/02 04:43:19;;;;;;;83.47;23.43;;;;;;;;;;5056786;28;20055;-84
2023/03/02 04:46:04;;;;;;;135.97;27.63;;;;;;;;;;5056856;28;20523;-84
2023/03/02 04:48:48;;;;;;;119.47;25.60;;;;;;;;;;5056835;28;20039;-84
2023/03/02 04:51:38;;;;;;;92.77;26.37;;;1.40;99.90;;;;;;5059679;28;20036;-83
2023/03/02 04:54:24;;;;;;;97.03;26.60;;;1.50;99.90;;;;;;5074806;28;20183;-83
2023/03/02 04:57:09;;;;;;;107.10;30.53;;;;;;;;;;5074155;28;20034;-84
2023/03/02 04:59:54;;;;;;;94.30;27.67;;;;;;;;;;5060299;28;20131;-84
2023/03/02 05:02:39;;;;;;;166.47;29.77;;;;;;;;;;5060167;28;20075;-84
2023/03/02 05:05:24;;;;;;;151.50;27.03;;;;;;;;;;5074859;28;20133;-85
2023/03/02 05:08:09;;;;;;;157.20;32.60;;;;;;;;;;5059933;28;20090;-83
2023/03/02 05:10:53;;;;;;;217.70;35.13;;;;;;;;;;5059416;28;20089;-83
2023/03/02 05:13:37;;;;;;;153.73;28.03;;;;;;;;;;5059717;28;20043;-84
2023/03/02 05:16:23;;;;;;;161.83;31.47;;;;;;;;;;5075169;28;20074;-83
2023/03/02 05:19:10;;;;;;;174.10;31.43;;;1.20;99.90;;;;;;5060018;28;20057;-83
2023/03/02 05:21:55;;;;;;;170.40;29.00;;;;;;;;;;5075438;28;20104;-83
2023/03/02 05:24:40;;;;;;;148.80;31.37;;;;;;;;;;5059971;28;20047;-84
2023/03/02 05:27:25;;;;;;;137.47;31.87;;;;;;;;;;5059741;28;20139;-84
2023/03/02 05:30:09;;;;;;;221.73;36.60;;;;;;;;;;5059840;28;20070;-84
2023/03/02 05:32:54;;;;;;;136.67;28.00;;;;;;;;;;5060164;28;20070;-83
2023/03/02 05:35:39;;;;;;;131.83;29.57;;;;;;;;;;5074921;28;20488;-84
2023/03/02 05:38:23;;;;;;;115.23;28.60;;;;;;;;;;5059620;28;20084;-83
2023/03/02 05:41:08;;;;;;;216.10;33.73;;;;;;;;;;5059513;28;20130;-83
2023/03/02 05:43:53;;;;;;;185.50;32.10;;;;;;;;;;5059554;28;20089;-83
2023/03/02 05:46:37;;;;;;;199.50;33.83;;;;;;;;;;5059709;28;20051;-84
2023/03/02 05:49:22;;;;;;;175.23;30.37;;;;;;;;;;5074726;28;20059;-84
2023/03/02 05:52:07;;;;;;;334.23;43.33;;;;;;;;;;5059450;28;20514;-83
2023/03/02 05:54:51;;;;;;;189.77;31.80;;;;;;;;;;5059567;28;20051;-83
2023/03/02 05:57:36;;;;;;;165.90;30.17;;;;;;;;;;5059365;28;20043;-85
2023/03/02 06:00:21;;;;;;;165.10;29.77;;;;;;;;;;5058832;28;20035;-86
2023/03/02 06:03:06;;;;;;;135.63;29.37;;;;;;;;;;5058426;28;20035;-87
2023/03/02 06:05:51;;;;;;;217.30;32.43;;;;;;;;;;5059295;28;20392;-83
2023/03/02 06:08:39;;;;;;;166.00;31.67;;;;;;;;;;5059654;28;20039;-84
2023/03/02 06:11:24;;;;;;;124.07;25.40;;;;;;;;;;5058799;28;20087;-84
2023/03/02 06:14:08;;;;;;;132.27;28.80;;;;;;;;;;5074110;28;20530;-84
2023/03/02 06:16:53;;;;;;;203.30;31.07;;;;;;;;;;5074071;28;20506;-84
2023/03/02 06:19:37;;;;;;;81.90;22.27;;;;;;;;;;5059239;28;20401;-86
2023/03/02 06:22:22;;;;;;;132.03;24.23;;;;;;;;;;5058353;28;20043;-87
2023/03/02 06:25:08;;;;;;;96.10;21.33;;;;;;;;;;5073899;28;20114;-84
2023/03/02 06:27:52;;;;;;;160.63;26.57;;;;;;;;;;5056913;28;20040;-85
2023/03/02 06:30:37;;;;;;;150.60;33.80;;;;;;;;;;5074075;28;20067;-84
2023/03/02 06:33:21;;;;;;;171.07;32.30;;;;;;;;;;5057781;28;20408;-84
2023/03/02 06:36:06;;;;;;;135.53;25.83;;;;;;;;;;5058844;28;20043;-84
2023/03/02 06:38:51;;;;;;;176.60;30.00;;;;;;;;;;5073753;28;20043;-84
2023/03/02 06:41:35;;;;;;;135.50;28.20;;;;;;;;;;5073740;28;20044;-83
2023/03/02 06:44:20;;;;;;;175.40;32.77;;;;;;;;;;5058266;28;20182;-83
2023/03/02 06:47:05;;;;;;;174.67;33.47;;;;;;;;;;5058417;28;20051;-84
2023/03/02 06:49:49;;;;;;;160.67;28.70;;;;;;;;;;5058557;28;20507;-84
2023/03/02 06:52:34;;;;;;;119.30;27.80;;;;;;;;;;5058223;28;20183;-84
2023/03/02 06:55:18;;;;;;;197.67;29.97;;;;;;;;;;5058172;28;20090;-84
2023/03/02 06:58:03;;;;;;;128.53;28.07;;;;;;;;;;5073880;28;20039;-84
2023/03/02 07:00:47;;;;;;;143.57;30.50;;;;;;;;;;5058774;28;20488;-84
2023/03/02 07:03:32;;;;;;;151.57;30.17;;;;;;;;;;5073074;28;20494;-84
2023/03/02 07:06:17;;;;;;;180.67;29.73;;;;;;;;;;5072829;28;20052;-84
2023/03/02 07:09:02;;;;;;;138.57;28.43;;;;;;;;;;5073142;28;20035;-84
2023/03/02 07:11:47;;;;;;;158.23;29.17;;;;;;;;;;5058286;28;20435;-84
2023/03/02 07:14:31;;;;;;;106.27;23.20;;;;;;;;;;5057495;28;20038;-84
2023/03/02 07:17:16;;;;;;;113.53;23.37;;;;;;;;;;5057647;28;20097;-85
2023/03/02 07:20:01;;;;;;;174.23;31.50;;;;;;;;;;5073038;28;20040;-84
2023/03/02 07:22:45;;;;;;;147.27;28.47;;;;;;;;;;5058050;28;20039;-84
2023/03/02 07:25:30;;;;;;;113.63;24.67;;;;;;;;;;5057247;28;20051;-85
2023/03/02 07:28:15;;;;;;;114.23;25.63;;;;;;;;;;5057920;28;20042;-83
2023/03/02 07:30:59;;;;;;;99.60;25.30;;;;;;;;;;5057846;28;20485;-83
2023/03/02 07:33:43;;;;;;;100.83;21.03;;;;;;;;;;5057800;28;20102;-84
2023/03/02 07:36:28;;;;;;;73.00;19.33;;;;;;;;;;5072626;28;20566;-83
2023/03/02 07:39:13;;;;;;;93.83;24.63;;;;;;;;;;5058057;28;20039;-83
2023/03/02 07:41:58;;;;;;;152.83;25.40;;;;;;;;;;5057734;28;20039;-84
2023/03/02 07:44:43;;;;;;;102.37;24.07;;;;;;;;;;5057354;28;20413;-85
2023/03/02 07:47:28;;;;;;;78.17;24.20;;;;;;;;;;5057085;28;20408;-84
2023/03/02 07:50:12;;;;;;;98.83;21.93;;;;;;;;;;5057350;28;20055;-84
2023/03/02 07:52:57;;;;;;;92.47;23.43;;;;;;;;;;5072385;28;20492;-83
2023/03/02 07:55:41;;;;;;;123.40;26.00;;;;;;;;;;5072051;28;20527;-84
2023/03/02 07:58:26;;;;;;;79.87;23.17;;;;;;;;;;5072087;28;20063;-83
2023/03/02 08:01:11;;;;;;;96.40;23.87;;;;;;;;;;5057229;28;20044;-84
2023/03/02 08:03:55;;;;;;;81.07;24.87;;;;;;;;;;5057131;28;20117;-84
2023/03/02 08:06:40;;;;;;;93.27;24.30;;;;;;;;;;5056701;28;20093;-84
2023/03/02 08:09:25;;;;;;;76.83;24.20;;;;;;;;;;5056739;28;20058;-84
2023/03/02 08:12:10;;;;;;;108.47;28.60;;;;;;;;;;5072152;28;20082;-87
2023/03/02 08:14:55;;;;;;;74.47;25.30;;;;;;;;;;5056991;28;20075;-85
2023/03/02 08:17:39;;;;;;;72.47;21.70;;;;;;;;;;5071777;28;20527;-84
2023/03/02 08:20:24;;;;;;;80.43;24.20;;;;;;;;;;5056622;28;20032;-84
2023/03/02 08:23:08;;;;;;;77.13;25.17;;;;;;;;;;5057154;28;20043;-84
2023/03/02 08:25:53;;;;;;;56.63;23.17;;;1.40;99.90;;;;;;5058267;28;20060;-85
2023/03/02 08:28:38;;;;;;;76.10;23.13;;;;;;;;;;5046530;28;20400;-84
2023/03/02 08:31:23;;;;;;;104.07;25.30;;;;;;;;;;5060894;28;20040;-84
2023/03/02 08:34:08;;;;;;;72.97;26.30;;;;;;;;;;5079255;28;20085;-84
2023/03/02 08:36:53;;;;;;;103.07;25.20;;;;;;;;;;5076453;28;20083;-85
2023/03/02 08:39:38;;;;;;;124.97;25.13;;;;;;;;;;5075606;28;20035;-84
2023/03/02 08:42:22;;;;;;;64.43;23.40;;;;;;;;;;5060801;28;20097;-84
2023/03/02 08:45:07;;;;;;;75.77;24.03;;;;;;;;;;5075881;28;20453;-85
2023/03/02 08:47:55;;;;;;;59.07;21.70;;;;;;;;;;5060757;28;20124;-86
2023/03/02 08:50:39;;;;;;;76.20;21.53;;;;;;;;;;5060138;28;20039;-84
2023/03/02 08:53:24;;;;;;;99.10;23.17;;;;;;;;;;5060605;28;20090;-85
2023/03/02 08:56:15;;;;;;;64.00;23.03;;;;;;;;;;5060411;28;20503;-84
2023/03/02 08:59:02;;;;;;;58.13;22.97;;;1.80;99.90;;;;;;5075425;28;20036;-84
2023/03/02 09:01:48;;;;;;;67.50;24.17;;;;;;;;;;5060264;28;20039;-85
2023/03/02 09:04:32;;;;;;;57.47;22.43;;;;;;;;;;5059715;28;20039;-84
2023/03/02 09:07:17;;;;;;;60.03;22.57;;;;;;;;;;5059979;28;20063;-85
2023/03/02 09:10:01;;;;;;;53.53;22.90;;;;;;;;;;5075247;28;20047;-85
2023/03/02 09:12:46;;;;;;;76.60;24.37;;;;;;;;;;5059750;28;20504;-85
2023/03/02 09:15:30;;;;;;;60.83;22.80;;;;;;;;;;5059943;28;20048;-89
2023/03/02 09:18:15;;;;;;;45.23;20.13;;;;;;;;;;5059802;28;20040;-84
2023/03/02 09:20:59;;;;;;;46.10;20.37;;;;;;;;;;5059934;28;20546;-86
2023/03/02 09:23:44;;;;;;;47.23;20.23;;;;;;;;;;5059490;28;20078;-85
2023/03/02 09:26:28;;;;;;;39.17;18.90;;;;;;;;;;5059755;28;20098;-86
2023/03/02 09:29:12;;;;;;;38.13;18.83;;;;;;;;;;5059792;28;20047;-86
2023/03/02 09:31:57;;;;;;;40.53;18.13;;;;;;;;;;5074424;28;20066;-86
2023/03/02 09:34:42;;;;;;;35.93;18.67;;;;;;;;;;5074225;28;20047;-87
2023/03/02 09:37:29;;;;;;;39.47;17.73;;;;;;;;;;5058137;28;20043;-86
2023/03/02 09:40:23;;;;;;;49.53;24.50;;;2.40;99.90;;;;;;5059317;28;20066;-85
2023/03/02 09:43:31;;;;;;;44.45;24.55;;;2.40;99.90;;;;;;5059068;28;20039;-85
2023/03/02 09:46:26;;;;;;;42.33;19.87;;;;;;;;;;5074562;28;20519;-86
2023/03/02 09:49:27;;;;;;;;;;;2.40;99.90;;;;;;5059592;28;20087;-87
2023/03/02 09:52:29;;;;;;;42.50;19.93;;;2.40;99.90;;;;;;5059357;28;20007;-85
2023/03/02 09:55:15;;;;;;;39.17;18.10;;;;;;;;;;5074419;28;20035;-86
2023/03/02 09:58:04;;;;;;;56.23;29.53;;;2.50;99.90;;;;;;5074079;28;20082;-85
2023/03/02 10:00:48;;;;;;;44.00;23.20;;;;;;;;;;5062125;28;20035;-87
2023/03/02 10:03:56;;;;;;;37.07;19.47;;;2.60;99.90;;;;;;5059739;28;20042;-86
2023/03/02 10:06:41;;;;;;;48.57;25.07;;;;;;;;;;5073895;28;20467;-85
2023/03/02 10:09:25;;;;;;;62.90;31.03;;;;;;;;;;5074271;28;20096;-86
2023/03/02 10:12:10;;;;;;;61.70;31.40;;;;;;;;;;5059795;28;20058;-86
2023/03/02 10:15:02;;;;;;;54.17;28.43;;;;;;;;;;5058529;28;20081;-85
2023/03/02 10:18:12;;;;;;;40.20;21.87;;;3.00;99.90;;;;;;5073515;28;20533;-85
2023/03/02 10:21:05;;;;;;;35.83;17.47;;;3.10;99.90;;;;;;5073577;28;20113;-86
2023/03/02 10:24:00;;;;;;;35.27;18.63;;;;;;;;;;5058441;28;20071;-85
2023/03/02 10:26:58;;;;;;;42.27;20.73;;;3.30;99.90;;;;;;5073317;28;20085;-87
2023/03/02 10:29:51;;;;;;;36.70;18.67;;;;;;;;;;5058314;28;20071;-86
2023/03/02 10:32:37;;;;;;;42.20;22.30;;;;;;;;;;5073666;28;20059;-86
2023/03/02 10:35:23;;;;;;;31.80;16.70;;;;;;;;;;5058752;28;20071;-86
2023/03/02 10:38:13;;;;;;;35.93;17.83;;;;;;;;;;5058396;28;20047;-86
2023/03/02 10:41:00;;;;;;;42.93;24.03;;;;;;;;;;5058083;28;20040;-87
2023/03/02 10:43:47;;;;;;;35.43;19.33;;;3.60;99.90;;;;;;5057594;28;20641;-88
2023/03/02 10:46:39;;;;;;;33.43;18.40;;;;;;;;;;5058200;28;20047;-86
2023/03/02 10:49:26;;;;;;;37.03;17.97;;;;;;;;;;5057999;28;20047;-86
2023/03/02 10:52:14;;;;;;;34.17;18.40;;;;;;;;;;5073309;28;20451;-86
2023/03/02 10:55:06;;;;;;;30.40;16.23;;;3.50;99.90;;;;;;5072973;28;20040;-86
2023/03/02 10:58:04;;;;;;;28.23;15.77;;;3.50;99.90;;;;;;5072906;28;20094;-86
2023/03/02 11:01:16;;;;;;;31.17;16.33;;;3.60;99.90;;;;;;5057519;28;20079;-86
2023/03/02 11:04:01;;;;;;;35.67;18.80;;;3.60;99.90;;;;;;5072910;28;20051;-86
2023/03/02 11:06:45;;;;;;;29.07;16.87;;;;;;;;;;5057494;28;20056;-88
2023/03/02 11:09:33;;;;;;;36.30;18.70;;;;;;;;;;5057728;28;20079;-87
2023/03/02 11:12:18;;;;;;;56.30;30.73;;;;;;;;;;5057816;28;20067;-86
2023/03/02 11:15:02;;;;;;;40.97;19.43;;;;;;;;;;5057418;28;20093;-86
2023/03/02 11:18:00;;;;;;;43.30;22.83;;;;;;;;;;5072714;28;20031;-90
2023/03/02 11:20:48;;;;;;;36.33;19.60;;;3.70;99.90;;;;;;5072799;28;20039;-86
2023/03/02 11:23:40;;;;;;;31.10;16.63;;;;;;;;;;5057606;28;20162;-86
2023/03/02 11:26:25;;;;;;;30.77;16.93;;;;;;;;;;5072627;28;20570;-84
2023/03/02 11:29:13;;;;;;;42.33;22.93;;;;;;;;;;5057296;28;20043;-86
2023/03/02 11:32:21;;;;;;;31.50;16.10;;;4.00;99.90;;;;;;5057131;28;20485;-85
2023/03/02 11:35:52;;;;;;;27.87;14.80;;;4.10;99.90;;;;;;5057112;28;20507;-85
2023/03/02 11:38:57;;;;;;;28.37;14.40;;;4.20;99.90;;;;;;4957824;28;20174;-85
2023/03/02 11:41:41;;;;;;;27.25;14.13;;;;;;;;;;4971734;28;20498;-85
2023/03/02 11:44:27;;;;;;;29.97;15.83;;;;;;;;;;5055828;28;20397;-85
2023/03/02 11:47:13;;;;;;;24.67;13.52;;;;;;;;;;5056850;28;20504;-88
2023/03/02 11:50:00;;;;;;;23.58;12.75;;;;;;;;;;5056896;28;20137;-85
2023/03/02 11:52:47;;;;;;;21.47;12.53;;;;;;;;;;5072590;28;20119;-85
2023/03/02 11:55:39;;;;;;;26.97;14.67;;;4.20;99.90;;;;;;5057184;28;20047;-85
2023/03/02 11:58:27;;;;;;;23.57;12.13;;;4.30;99.90;;;;;;5057317;28;20039;-84
2023/03/02 12:01:16;;;;;;;27.83;15.80;;;;;;;;;;5071258;28;20042;-85
2023/03/02 12:04:34;;;;;;;22.77;13.27;;;4.90;99.90;;;;;;5056789;28;20492;-85
2023/03/02 12:07:26;;;;;;;19.63;10.43;;;5.10;99.90;;;;;;5072404;28;20046;-86
2023/03/02 12:10:30;;;;;;;20.30;10.48;;;5.30;99.90;;;;;;5071782;28;20040;-86
2023/03/02 12:13:29;;;;;;;16.40;8.57;;;;;;;;;;5056665;28;20040;-86
2023/03/02 12:16:23;;;;;;;18.70;10.25;;;;;;;;;;5056483;28;20089;-85
2023/03/02 12:19:17;;;;;;;17.45;9.35;;;;;;;;;;5056573;28;20044;-86
2023/03/02 12:22:08;;;;;;;18.05;10.27;;;5.90;99.90;;;;;;5056597;28;20040;-86
2023/03/02 12:24:59;;;;;;;18.48;10.40;;;;;;;;;;5056831;28;20496;-86
2023/03/02 12:27:44;;;;;;;21.63;11.38;;;;;;;;;;5056780;28;20120;-86
2023/03/02 12:30:30;;;;;;;21.33;10.90;;;;;;;;;;5056786;28;20047;-85
2023/03/02 12:33:20;;;;;;;17.75;9.40;;;6.40;99.90;;;;;;5056451;28;20040;-86
2023/03/02 12:36:12;;;;;;;19.25;10.40;;;6.20;99.90;;;;;;5042398;28;20047;-86
2023/03/02 12:39:24;;;;;;;17.38;11.35;;;6.00;99.90;;;;;;5071814;28;20071;-88
2023/03/02 12:42:18;;;;;;;20.48;11.68;;;;;;;;;;5056353;28;20044;-85
2023/03/02 12:45:18;;;;;;;17.42;9.57;;;;;;;;;;5056254;28;20546;-86
2023/03/02 12:48:18;;;;;;;18.73;11.20;;;5.90;99.90;;;;;;5056301;28;20075;-85
2023/03/02 12:51:03;;;;;;;18.02;10.75;;;;;;;;;;5056290;28;20120;-86
2023/03/02 12:53:49;;;;;;;20.80;10.43;;;5.90;99.90;;;;;;5071806;28;20496;-85
2023/03/02 12:56:34;;;;;;;21.55;12.70;;;;;;;;;;5056615;28;20524;-86
2023/03/02 12:59:27;;;;;;;18.27;10.18;;;6.10;99.90;;;;;;5071566;28;20085;-85
2023/03/02 13:02:15;;;;;;;19.00;10.60;;;;;;;;;;5056167;28;20078;-84
2023/03/02 13:05:01;;;;;;;18.10;10.80;;;;;;;;;;5056515;28;20085;-85
2023/03/02 13:08:01;;;;;;;20.33;11.07;;;;;;;;;;5071544;28;20404;-85
2023/03/02 13:10:57;;;;;;;20.90;11.77;;;6.80;99.90;;;;;;5056454;28;20039;-84
2023/03/02 13:13:43;;;;;;;21.17;10.75;;;7.00;99.90;;;;;;5060064;28;20440;-85
2023/03/02 13:16:33;;;;;;;19.23;11.20;;;7.00;99.90;;;;;;5045867;28;20558;-85
2023/03/02 13:19:18;;;;;;;21.17;11.82;;;;;;;;;;5059871;28;20463;-84
2023/03/02 13:22:03;;;;;;;24.05;11.73;;;;;;;;;;5059639;28;20059;-85
2023/03/02 13:24:50;;;;;;;22.15;11.93;;;;;;;;;;5060042;28;20059;-85
2023/03/02 13:27:35;;;;;;;25.40;12.10;;;;;;;;;;5074853;28;20075;-84
2023/03/02 13:30:26;;;;;;;26.88;13.98;;;7.70;99.90;;;;;;5059378;28;20047;-88
2023/03/02 13:33:20;;;;;;;22.40;12.48;;;;;;;;;;5074323;28;20081;-85
2023/03/02 13:36:04;;;;;;;25.73;12.73;;;;;;;;;;5074752;28;20090;-87
2023/03/02 13:38:51;;;;;;;25.85;14.30;;;;;;;;;;5059664;28;20124;-88
2023/03/02 13:41:59;;;;;;;31.80;18.60;;;;;;;;;;5074704;28;20040;-89
2023/03/02 13:44:45;;;;;;;29.17;15.82;;;;;;;;;;5074458;28;20227;-87
2023/03/02 13:47:29;;;;;;;28.90;14.75;;;;;;;;;;5059318;28;20170;-85
2023/03/02 13:50:22;;;;;;;27.38;13.98;;;;;;;;;;5058980;28;20051;-86
2023/03/02 13:53:07;;;;;;;31.92;16.25;;;;;;;;;;5058940;28;20508;-88
2023/03/02 13:55:53;;;;;;;25.15;13.77;;;;;;;;;;5074581;28;20404;-85
2023/03/02 13:58:39;;;;;;;25.00;14.13;;;;;;;;;;5059088;28;20078;-85
2023/03/02 14:01:23;;;;;;;22.35;13.13;;;;;;;;;;5058818;28;20034;-86
2023/03/02 14:04:12;;;;;;;27.10;14.20;;;;;;;;;;5074116;28;20032;-90
2023/03/02 14:06:57;;;;;;;25.15;14.52;;;;;;;;;;5058912;28;20043;-87
2023/03/02 14:09:41;;;;;;;23.08;13.82;;;;;;;;;;5059080;28;20400;-88
2023/03/02 14:12:28;;;;;;;21.08;11.82;;;;;;;;;;5058570;28;20036;-86
2023/03/02 14:15:14;;;;;;;20.50;12.05;;;;;;;;;;5058463;28;20059;-87
2023/03/02 14:17:59;;;;;;;18.73;11.30;;;;;;;;;;5058733;28;20461;-87
2023/03/02 14:20:44;;;;;;;21.25;12.00;;;;;;;;;;5058738;28;20112;-87
2023/03/02 14:23:29;;;;;;;19.38;12.48;;;;;;;;;;5057622;28;20035;-87
2023/03/02 14:26:25;;;;;;;23.38;15.70;;;;;;;;;;5058308;28;20174;-88
2023/03/02 14:29:24;;;;;;;21.48;11.80;;;;;;;;;;5058646;28;20507;-88
2023/03/02 14:32:10;;;;;;;20.63;10.52;;;;;;;;;;5058409;28;20036;-89
2023/03/02 14:34:55;;;;;;;19.67;11.05;;;;;;;;;;5058495;28;20124;-89
2023/03/02 14:37:46;;;;;;;17.88;10.98;;;8.10;99.90;;;;;;5058534;28;20194;-89
2023/03/02 14:40:32;;;;;;;21.52;11.65;;;;;;;;;;5058139;28;20056;-87
2023/03/02 14:43:17;;;;;;;24.67;13.88;;;;;;;;;;5073012;28;20048;-87
2023/03/02 14:46:02;;;;;;;21.38;12.35;;;;;;;;;;5051950;28;20618;-87
2023/03/02 14:48:47;;;;;;;17.98;11.40;;;;;;;;;;5053423;28;20099;-87
2023/03/02 14:51:33;;;;;;;18.33;11.68;;;;;;;;;;5052172;28;20044;-85
2023/03/02 14:54:19;;;;;;;20.23;12.82;;;;;;;;;;5051949;28;20459;-86
2023/03/02 14:57:06;;;;;;;16.75;10.75;;;;;;;;;;5038220;28;20131;-87
2023/03/02 14:59:52;;;;;;;17.38;10.25;;;;;;;;;;5052103;28;20417;-91
2023/03/02 15:02:37;;;;;;;16.55;11.43;;;;;;;;;;5037787;28;20124;-88
2023/03/02 15:05:21;;;;;;;16.77;10.30;;;;;;;;;;5051705;28;20558;-88
2023/03/02 15:08:06;;;;;;;15.80;10.88;;;;;;;;;;5053003;28;20124;-90
2023/03/02 15:10:50;;;;;;;16.05;10.15;;;;;;;;;;5052985;28;20083;-87
2023/03/02 15:13:35;;;;;;;20.30;11.38;;;;;;;;;;5052662;28;20091;-93
2023/03/02 15:16:20;;;;;;;40.90;20.90;;;;;;;;;;5051660;28;20091;-88
2023/03/02 15:19:05;;;;;;;26.45;14.88;;;;;;;;;;5051663;28;20603;-88
2023/03/02 15:21:51;;;;;;;16.58;10.68;;;;;;;;;;5052856;28;20060;-87
2023/03/02 15:24:36;;;;;;;18.20;10.88;;;;;;;;;;5052441;28;20084;-88
2023/03/02 15:27:21;;;;;;;20.92;11.90;;;;;;;;;;5051292;28;20090;-88
2023/03/02 15:30:06;;;;;;;22.85;13.65;;;;;;;;;;5037916;28;20059;-87
2023/03/02 15:32:52;;;;;;;22.45;13.00;;;;;;;;;;5052564;28;20043;-89
2023/03/02 15:35:39;;;;;;;19.02;13.32;;;7.50;99.90;;;;;;5051169;28;20044;-88
2023/03/02 15:38:24;;;;;;;18.15;11.15;;;;;;;;;;5037399;28;20040;-87
2023/03/02 15:41:14;;;;;;;22.88;13.77;;;;;;;;;;5052531;28;20086;-88
2023/03/02 15:43:59;;;;;;;19.58;13.00;;;;;;;;;;5037702;28;20040;-85
2023/03/02 15:46:44;;;;;;;24.70;13.27;;;;;;;;;;5072104;28;20043;-85
2023/03/02 15:49:31;;;;;;;27.00;18.00;;;;;;;;;;5056882;28;20055;-86
2023/03/02 15:52:15;;;;;;;27.50;17.25;;;;;;;;;;5072233;28;20040;-86
2023/03/02 15:55:00;;;;;;;28.45;17.50;;;;;;;;;;5057248;28;20086;-87
2023/03/02 15:57:44;;;;;;;24.73;16.00;;;;;;;;;;5057995;28;20039;-89